Time;durP1;ratioP1;P1;durP2;ratioP2;P2;SDS_P1;SDS_P2;PMS_P1;PMS_P2;Temp;Humidity;BMP_temperature;BMP_pressure;BME280_temperature;BME280_humidity;BME280_pressure;Samples;Min_cycle;Max_cycle;Signal;HPM_P1;HPM_P2
2022/01/01 00:01:54;;;;;;;447.80;295.58;;;;;;;8.58;100.00;102397.84;5052466;28;20111;-73
2022/01/01 00:04:20;;;;;;;1236.03;760.60;;;;;;;8.58;100.00;102390.78;5052885;28;20033;-74
2022/01/01 00:06:45;;;;;;;235.73;121.07;;;;;;;8.60;100.00;102390.69;5052482;28;20433;-73
2022/01/01 00:09:11;;;;;;;537.20;345.50;;;;;;;8.59;100.00;102399.59;5052527;28;20087;-73
2022/01/01 00:11:36;;;;;;;631.58;478.15;;;;;;;8.58;100.00;102380.16;5034908;28;20031;-73
2022/01/01 00:14:02;;;;;;;242.35;136.32;;;;;;;8.60;100.00;102383.56;5052633;28;20402;-74
2022/01/01 00:16:27;;;;;;;230.38;128.48;;;;;;;8.61;100.00;102387.06;5051814;28;20025;-73
2022/01/01 00:18:52;;;;;;;574.80;308.92;;;;;;;8.59;100.00;102375.69;5053115;28;20342;-73
2022/01/01 00:21:18;;;;;;;418.58;298.73;;;;;;;8.59;100.00;102378.34;5052828;28;20492;-73
2022/01/01 00:23:43;;;;;;;254.43;136.80;;;;;;;8.55;100.00;102369.69;5051979;28;20029;-73
2022/01/01 00:26:08;;;;;;;227.82;118.68;;;;;;;8.53;100.00;102355.69;5052574;28;20090;-73
2022/01/01 00:28:34;;;;;;;242.10;126.68;;;;;;;8.52;100.00;102369.03;5034600;28;20393;-73
2022/01/01 00:30:59;;;;;;;169.65;85.75;;;;;;;8.46;100.00;102371.09;5052586;28;20033;-73
2022/01/01 00:33:25;;;;;;;184.77;91.00;;;;;;;8.47;100.00;102359.53;5052727;28;20037;-74
2022/01/01 00:35:51;;;;;;;331.17;207.98;;;;;;;8.46;100.00;102357.84;5052784;28;20033;-73
2022/01/01 00:38:16;;;;;;;366.27;183.27;;;;;;;8.45;100.00;102361.44;5052831;28;20419;-72
2022/01/01 00:40:42;;;;;;;195.10;95.85;;;;;;;8.43;100.00;102370.38;5052675;28;20029;-73
2022/01/01 00:43:07;;;;;;;185.80;82.47;;;;;;;8.41;100.00;102369.63;5052732;28;20029;-72
2022/01/01 00:45:32;;;;;;;356.27;211.77;;;;;;;8.40;100.00;102367.91;5053469;28;20028;-72
2022/01/01 00:47:58;;;;;;;318.92;170.93;;;;;;;8.37;100.00;102370.72;5034790;28;20032;-72
2022/01/01 00:50:23;;;;;;;144.93;55.72;;;;;;;8.40;100.00;102383.81;5053353;28;20353;-72
2022/01/01 00:52:51;;;;;;;199.27;90.40;;;;;;;8.38;100.00;102386.56;5052621;28;20123;-73
2022/01/01 00:55:16;;;;;;;170.18;71.70;;;;;;;8.35;100.00;102389.38;5052988;28;20052;-72
2022/01/01 00:57:41;;;;;;;154.82;65.53;;;;;;;8.37;100.00;102398.09;5052166;28;20074;-72
2022/01/01 01:00:08;;;;;;;158.73;66.70;;;;;;;8.41;100.00;102396.16;5053124;28;20029;-72
2022/01/01 01:02:33;;;;;;;165.43;66.68;;;;;;;8.40;100.00;102395.28;5055633;28;20025;-71
2022/01/01 01:04:59;;;;;;;155.15;65.03;;;;;;;8.36;100.00;102393.75;5054991;28;20025;-71
2022/01/01 01:07:24;;;;;;;198.80;89.47;;;;;;;8.33;100.00;102398.38;5056669;28;20033;-72
2022/01/01 01:09:50;;;;;;;197.63;84.53;;;;;;;8.37;100.00;102406.06;5056330;28;20380;-72
2022/01/01 01:12:22;;;;;;;299.38;146.40;;;;;;;8.45;100.00;102405.69;5056294;28;20087;-72
2022/01/01 01:14:47;;;;;;;171.55;71.13;;;;;;;8.49;100.00;102401.88;5055007;28;20029;-72
2022/01/01 01:17:13;;;;;;;159.13;62.47;;;;;;;8.57;100.00;102398.78;5055899;28;20507;-72
2022/01/01 01:19:38;;;;;;;182.40;73.25;;;;;;;8.63;100.00;102398.47;5055885;28;20044;-77
2022/01/01 01:22:04;;;;;;;182.77;68.95;;;;;;;8.68;100.00;102392.91;5056355;28;20365;-72
2022/01/01 01:24:30;;;;;;;182.57;75.85;;;;;;;8.64;100.00;102409.00;5055930;28;20032;-71
2022/01/01 01:27:00;;;;;;;187.68;67.05;;;;;;;8.66;100.00;102406.25;5055752;28;20025;-76
2022/01/01 01:29:26;;;;;;;218.30;94.65;;;;;;;8.63;100.00;102414.38;5055885;28;20025;-74
2022/01/01 01:31:51;;;;;;;173.55;70.10;;;;;;;8.64;100.00;102421.38;5055598;28;20063;-74
2022/01/01 01:34:16;;;;;;;172.68;81.55;;;;;;;8.77;100.00;102427.69;5055951;28;20036;-73
2022/01/01 01:36:42;;;;;;;155.90;64.03;;;;;;;8.86;100.00;102418.34;5056022;28;20044;-74
2022/01/01 01:39:07;;;;;;;135.60;55.08;;;;;;;8.98;100.00;102403.50;5055722;28;20068;-77
2022/01/01 01:41:33;;;;;;;113.75;45.97;;;;;;;9.06;100.00;102403.94;5054438;28;20083;-75
2022/01/01 01:43:59;;;;;;;201.57;104.10;;;;;;;9.13;100.00;102413.22;5055345;28;20036;-74
2022/01/01 01:46:26;;;;;;;122.15;50.08;;;;;;;9.18;100.00;102410.28;5056360;28;20103;-74
2022/01/01 01:48:51;;;;;;;109.93;49.60;;;;;;;9.23;100.00;102410.88;5054175;28;20029;-73
2022/01/01 01:51:17;;;;;;;106.20;51.10;;;;;;;9.27;100.00;102412.41;5055791;28;20087;-73
2022/01/01 01:53:43;;;;;;;93.32;37.17;;;;;;;9.28;100.00;102411.44;5055584;28;20389;-74
2022/01/01 01:56:08;;;;;;;91.88;33.60;;;;;;;9.28;100.00;102408.78;5055517;28;20033;-75
2022/01/01 01:58:34;;;;;;;77.20;30.20;;;;;;;9.25;100.00;102395.69;5054112;28;20412;-74
2022/01/01 02:03:31;;;;;;;87.15;34.45;;;;;;;9.19;100.00;102393.41;5055545;28;20386;-73
2022/01/01 02:05:57;;;;;;;96.03;45.15;;;;;;;9.21;100.00;102395.97;5054930;28;20025;-75
2022/01/01 02:08:24;;;;;;;88.68;37.42;;;;;;;9.26;100.00;102393.91;5054139;28;20041;-74
2022/01/01 02:10:52;;;;;;;100.95;49.25;;;;;;;9.31;100.00;102387.34;5054165;28;20095;-75
2022/01/01 02:13:31;;;;;;;103.45;41.88;;;;;;;9.32;100.00;102385.56;5053922;28;20550;-75
2022/01/01 02:18:22;;;;;;;90.93;37.08;;;;;;;9.42;100.00;102377.88;5055176;28;20132;-74
2022/01/01 02:20:51;;;;;;;88.45;35.40;;;;;;;9.44;100.00;102379.50;5055030;28;20036;-74
2022/01/01 02:23:18;;;;;;;87.13;31.48;;;;;;;9.53;100.00;102378.94;5055078;28;20123;-74
2022/01/01 02:25:44;;;;;;;79.45;35.88;;;;;;;9.48;100.00;102378.38;5054976;28;20032;-74
2022/01/01 02:28:11;;;;;;;87.45;37.92;;;;;;;9.45;100.00;102377.69;5055347;28;20399;-74
2022/01/01 02:30:37;;;;;;;87.88;33.00;;;;;;;9.47;100.00;102389.09;5054829;28;20037;-74
2022/01/01 02:33:03;;;;;;;91.70;32.67;;;;;;;9.47;100.00;102389.09;5054420;28;20036;-74
2022/01/01 02:35:28;;;;;;;87.80;44.92;;;;;;;9.46;100.00;102390.88;5054869;28;20116;-74
2022/01/01 02:37:53;;;;;;;70.40;24.95;;;;;;;9.51;100.00;102391.47;5055241;28;20468;-74
2022/01/01 02:40:20;;;;;;;58.05;20.92;;;;;;;9.61;100.00;102389.06;5053536;28;20119;-74
2022/01/01 02:42:45;;;;;;;66.05;30.70;;;;;;;9.70;100.00;102400.94;5054553;28;20029;-74
2022/01/01 02:45:13;;;;;;;51.65;18.77;;;;;;;9.80;100.00;102396.75;5053453;28;20475;-74
2022/01/01 02:47:39;;;;;;;68.85;29.50;;;;;;;9.86;100.00;102403.50;5055028;28;20047;-74
2022/01/01 02:50:06;;;;;;;58.17;21.80;;;;;;;9.93;100.00;102394.19;5054578;28;20032;-74
2022/01/01 02:52:32;;;;;;;53.90;22.60;;;;;;;9.98;100.00;102393.91;5053276;28;20416;-73
2022/01/01 02:54:57;;;;;;;63.35;21.17;;;;;;;10.02;100.00;102396.28;5054211;28;20033;-74
2022/01/01 02:57:23;;;;;;;49.47;20.48;;;;;;;10.06;100.00;102395.13;5054965;28;20041;-74
2022/01/01 02:59:48;;;;;;;47.78;18.10;;;;;;;10.09;100.00;102387.91;5054505;28;20041;-74
2022/01/01 03:02:14;;;;;;;51.25;24.00;;;;;;;10.10;100.00;102384.28;5054610;28;20031;-74
2022/01/01 03:04:40;;;;;;;61.13;25.77;;;;;;;10.15;100.00;102385.72;5054294;28;20377;-74
2022/01/01 03:07:06;;;;;;;68.28;26.63;;;;;;;10.12;100.00;102379.72;5053685;28;20127;-74
2022/01/01 03:09:35;;;;;;;67.72;33.75;;;;;;;10.12;100.00;102382.38;5054209;28;20033;-74
2022/01/01 03:12:07;;;;;;;135.27;76.53;;;;;;;10.06;100.00;102375.63;5054110;28;20116;-74
2022/01/01 03:14:32;;;;;;;;;;;;;;;10.01;100.00;102365.31;5054463;28;20033;-73
2022/01/01 03:16:58;;;;;;;201.70;135.05;;;;;;;9.92;100.00;102376.53;5054009;28;19915;-74
2022/01/01 03:19:24;;;;;;;96.72;52.70;;;;;;;9.81;100.00;102365.75;5053743;28;20461;-74
2022/01/01 03:21:49;;;;;;;101.60;55.03;;;;;;;9.69;100.00;102376.19;5054124;28;20039;-74
2022/01/01 03:24:15;;;;;;;152.73;94.78;;;;;;;9.62;100.00;102374.84;5053614;28;20033;-74
2022/01/01 03:26:41;;;;;;;83.85;38.85;;;;;;;9.55;100.00;102373.50;5053930;28;20036;-74
2022/01/01 03:29:06;;;;;;;88.82;43.63;;;;;;;9.52;100.00;102371.94;5053843;28;20037;-74
2022/01/01 03:31:32;;;;;;;89.32;41.45;;;;;;;9.56;100.00;102363.75;5053876;28;20044;-73
2022/01/01 03:33:58;;;;;;;85.32;39.03;;;;;;;9.60;100.00;102363.47;5053845;28;20025;-74
2022/01/01 03:36:25;;;;;;;79.80;37.55;;;;;;;9.58;100.00;102373.31;5053989;28;20025;-73
2022/01/01 03:38:50;;;;;;;73.85;34.50;;;;;;;9.53;100.00;102380.75;5053813;28;20035;-73
2022/01/01 03:41:16;;;;;;;72.45;34.72;;;;;;;9.50;100.00;102368.50;5053410;28;20104;-74
2022/01/01 03:43:41;;;;;;;57.55;22.67;;;;;;;9.44;100.00;102373.34;5052561;28;20469;-73
2022/01/01 03:46:06;;;;;;;61.08;25.88;;;;;;;9.41;100.00;102374.38;5053626;28;20036;-74
2022/01/01 03:48:32;;;;;;;56.53;21.40;;;;;;;9.37;100.00;102382.63;5053580;28;20121;-73
2022/01/01 03:50:57;;;;;;;60.78;22.27;;;;;;;9.34;100.00;102368.59;5052464;28;20072;-73
2022/01/01 03:53:24;;;;;;;60.05;24.27;;;;;;;9.30;100.00;102368.84;5054122;28;20477;-74
2022/01/01 03:55:50;;;;;;;44.03;18.67;;;;;;;9.32;100.00;102377.59;5052459;28;20029;-73
2022/01/01 03:58:15;;;;;;;57.03;19.65;;;;;;;9.29;100.00;102378.63;5053950;28;20060;-74
2022/01/01 04:00:41;;;;;;;59.55;19.83;;;;;;;9.28;100.00;102390.19;5053781;28;20033;-73
2022/01/01 04:03:11;;;;;;;76.05;32.90;;;;;;;9.31;100.00;102383.84;5053031;28;20094;-74
2022/01/01 04:05:40;;;;;;;73.47;29.67;;;;;;;9.36;100.00;102392.41;5051892;28;20029;-73
2022/01/01 04:08:06;;;;;;;56.10;21.92;;;;;;;9.41;100.00;102392.13;5052890;28;20378;-74
2022/01/01 04:10:32;;;;;;;44.35;19.88;;;;;;;9.42;100.00;102384.06;5053075;28;20037;-74
2022/01/01 04:12:58;;;;;;;53.55;20.98;;;;;;;9.49;100.00;102381.88;5053396;28;20522;-73
2022/01/01 04:15:25;;;;;;;48.42;19.13;;;;;;;9.49;100.00;102381.88;5051873;28;20033;-73
2022/01/01 04:17:53;;;;;;;58.35;23.45;;;;;;;9.49;100.00;102388.06;5053316;28;20070;-73
2022/01/01 04:20:18;;;;;;;52.53;18.73;;;;;;;9.54;100.00;102385.13;5053234;28;20033;-74
2022/01/01 04:22:43;;;;;;;49.47;18.73;;;;;;;9.52;100.00;102382.56;5053572;28;20377;-73
2022/01/01 04:25:09;;;;;;;45.10;19.77;;;;;;;9.47;100.00;102394.41;5052939;28;20040;-74
2022/01/01 04:27:34;;;;;;;67.00;28.67;;;;;;;9.51;100.00;102387.97;5052647;28;20040;-73
2022/01/01 04:30:00;;;;;;;70.90;28.05;;;;;;;9.57;100.00;102402.66;5053196;28;20099;-73
2022/01/01 04:32:25;;;;;;;77.18;30.13;;;;;;;9.63;100.00;102405.81;5053200;28;20491;-74
2022/01/01 04:34:50;;;;;;;58.67;25.30;;;;;;;9.67;100.00;102409.09;5053485;28;20519;-73
2022/01/01 04:37:20;;;;;;;79.15;35.35;;;;;;;9.68;100.00;102408.16;5055362;28;20029;-73
2022/01/01 04:39:45;;;;;;;74.22;33.83;;;;;;;9.71;100.00;102411.47;5057144;28;20068;-73
2022/01/01 04:42:11;;;;;;;76.55;37.83;;;;;;;9.72;100.00;102404.38;5057079;28;20029;-73
2022/01/01 04:44:36;;;;;;;51.85;24.63;;;;;;;9.76;100.00;102399.72;5056334;28;20060;-73
2022/01/01 04:47:02;;;;;;;46.65;19.75;;;;;;;9.77;100.00;102399.63;5057129;28;20041;-73
2022/01/01 04:49:27;;;;;;;54.15;19.98;;;;;;;9.81;100.00;102389.66;5057221;28;20051;-74
2022/01/01 04:51:53;;;;;;;43.50;18.60;;;;;;;9.78;100.00;102400.47;5056771;28;20029;-74
2022/01/01 04:54:18;;;;;;;39.00;16.48;;;;;;;9.73;100.00;102384.81;5056915;28;20025;-74
2022/01/01 04:56:46;;;;;;;33.88;15.15;;;;;;;9.73;100.00;102390.13;5055441;28;20045;-74
2022/01/01 04:59:12;;;;;;;34.55;15.20;;;;;;;9.71;100.00;102386.72;5056549;28;20072;-73
2022/01/01 05:01:39;;;;;;;36.72;16.17;;;;;;;9.71;100.00;102382.25;5057227;28;20037;-73
2022/01/01 05:04:05;;;;;;;40.50;17.23;;;;;;;9.69;100.00;102381.50;5056501;28;20040;-73
2022/01/01 05:06:30;;;;;;;34.58;17.70;;;;;;;9.67;100.00;102377.22;5056593;28;20033;-73
2022/01/01 05:08:56;;;;;;;39.15;17.20;;;;;;;9.64;100.00;102375.63;5055404;28;20115;-73
2022/01/01 05:11:21;;;;;;;40.38;17.92;;;;;;;9.60;100.00;102384.72;5056543;28;20039;-73
2022/01/01 05:13:46;;;;;;;35.92;17.35;;;;;;;9.57;100.00;102389.38;5056604;28;20055;-73
2022/01/01 05:16:16;;;;;;;44.17;16.77;;;;;;;9.48;100.00;102380.16;5055524;28;20052;-73
2022/01/01 05:18:41;;;;;;;34.63;16.30;;;;;;;9.38;100.00;102371.06;5054989;28;20400;-73
2022/01/01 05:21:07;;;;;;;38.05;17.25;;;;;;;9.28;100.00;102374.25;5056419;28;20029;-73
2022/01/01 05:23:33;;;;;;;44.97;18.60;;;;;;;9.22;100.00;102371.13;5055954;28;20041;-73
2022/01/01 05:25:58;;;;;;;45.65;18.75;;;;;;;9.21;100.00;102374.72;5056010;28;20108;-73
2022/01/01 05:28:24;;;;;;;38.65;17.73;;;;;;;9.22;100.00;102371.13;5055848;28;20454;-74
2022/01/01 05:30:50;;;;;;;41.65;18.27;;;;;;;9.24;100.00;102356.81;5056214;28;20041;-74
2022/01/01 05:33:16;;;;;;;44.33;18.40;;;;;;;9.28;100.00;102355.66;5056003;28;20127;-75
2022/01/01 05:35:42;;;;;;;44.80;18.33;;;;;;;9.30;100.00;102344.94;5056149;28;20064;-75
2022/01/01 05:38:07;;;;;;;35.63;16.40;;;;;;;9.25;100.00;102342.56;5056662;28;20108;-73
2022/01/01 05:40:32;;;;;;;35.60;14.90;;;;;;;9.18;100.00;102354.50;5056216;28;20036;-74
2022/01/01 05:42:58;;;;;;;35.17;13.68;;;;;;;9.11;100.00;102361.16;5056122;28;20427;-74
2022/01/01 05:45:23;;;;;;;33.63;13.82;;;;;;;9.04;100.00;102360.66;5056006;28;20358;-74
2022/01/01 05:47:49;;;;;;;34.33;15.05;;;;;;;9.04;100.00;102358.00;5056237;28;20029;-73
2022/01/01 05:50:14;;;;;;;32.08;14.32;;;;;;;9.06;100.00;102360.56;5055797;28;20029;-77
2022/01/01 05:52:40;;;;;;;34.00;13.60;;;;;;;9.09;100.00;102363.91;5056638;28;20090;-74
2022/01/01 05:55:05;;;;;;;36.78;14.88;;;;;;;9.12;100.00;102368.16;5055612;28;20033;-75
2022/01/01 05:57:31;;;;;;;37.20;14.30;;;;;;;9.14;100.00;102368.94;5055817;28;20056;-74
2022/01/01 05:59:56;;;;;;;33.60;14.68;;;;;;;9.15;100.00;102366.19;5056040;28;20042;-74
2022/01/01 06:02:23;;;;;;;28.42;13.23;;;;;;;9.20;100.00;102365.91;5055585;28;20507;-74
2022/01/01 06:04:48;;;;;;;27.00;12.20;;;;;;;9.25;100.00;102373.59;5055647;28;20482;-73
2022/01/01 06:07:13;;;;;;;28.17;11.95;;;;;;;9.31;100.00;102367.91;5055790;28;20057;-75
2022/01/01 06:09:39;;;;;;;30.83;11.70;;;;;;;9.33;100.00;102369.53;5055109;28;20040;-74
2022/01/01 06:12:04;;;;;;;26.98;10.63;;;;;;;9.40;100.00;102371.81;5055984;28;20029;-74
2022/01/01 06:14:30;;;;;;;21.73;10.23;;;;;;;9.49;100.00;102377.44;5037578;28;20028;-75
2022/01/01 06:16:55;;;;;;;24.70;9.50;;;;;;;9.55;100.00;102376.16;5055405;28;20041;-74
2022/01/01 06:19:20;;;;;;;24.30;9.10;;;;;;;9.57;100.00;102373.41;5055385;28;20086;-75
2022/01/01 06:21:46;;;;;;;23.63;9.32;;;;;;;9.59;100.00;102371.53;5055139;28;20025;-73
2022/01/01 06:24:11;;;;;;;21.05;9.05;;;;;;;9.62;100.00;102368.69;5055626;28;20114;-74
2022/01/01 06:26:36;;;;;;;22.52;8.95;;;;;;;9.63;100.00;102381.00;5055535;28;20025;-74
2022/01/01 06:29:02;;;;;;;21.02;8.48;;;;;;;9.62;100.00;102371.34;5055218;28;20044;-73
2022/01/01 06:31:28;;;;;;;19.67;8.50;;;;;;;9.66;100.00;102367.56;5055098;28;20033;-74
2022/01/01 06:33:53;;;;;;;19.35;8.55;;;;;;;9.68;100.00;102373.63;5054497;28;20040;-74
2022/01/01 06:36:19;;;;;;;18.75;8.10;;;;;;;9.67;100.00;102370.13;5054089;28;20040;-75
2022/01/01 06:38:45;;;;;;;21.65;7.93;;;;;;;9.68;100.00;102371.81;5054980;28;20384;-74
2022/01/01 06:41:11;;;;;;;20.05;8.20;;;;;;;9.70;100.00;102377.03;5054785;28;20083;-74
2022/01/01 06:43:38;;;;;;;22.23;7.97;;;;;;;9.69;100.00;102378.00;5055217;28;20061;-74
2022/01/01 06:46:04;;;;;;;17.77;7.32;;;;;;;9.71;100.00;102376.09;5054888;28;20025;-74
2022/01/01 06:48:30;;;;;;;21.88;8.25;;;;;;;9.72;100.00;102380.47;5055197;28;20033;-74
2022/01/01 06:50:55;;;;;;;20.42;8.23;;;;;;;9.74;100.00;102378.53;5053933;28;20036;-74
2022/01/01 06:53:21;;;;;;;19.13;8.02;;;;;;;9.76;100.00;102370.47;5054511;28;20033;-74
2022/01/01 06:55:46;;;;;;;19.80;8.25;;;;;;;9.77;100.00;102377.50;5054630;28;20025;-74
2022/01/01 06:58:11;;;;;;;24.52;9.73;;;;;;;9.79;100.00;102379.13;5055166;28;20084;-74
2022/01/01 07:00:37;;;;;;;20.73;7.63;;;;;;;9.80;100.00;102378.16;5052904;28;20406;-74
2022/01/01 07:03:03;;;;;;;20.48;8.20;;;;;;;9.80;100.00;102380.81;5054552;28;20040;-74
2022/01/01 07:05:29;;;;;;;17.67;8.02;;;;;;;9.80;100.00;102382.63;5054406;28;20060;-74
2022/01/01 07:07:54;;;;;;;28.48;8.68;;;;;;;9.83;100.00;102383.28;5054230;28;20041;-74
2022/01/01 07:10:20;;;;;;;20.45;8.10;;;;;;;9.81;100.00;102377.22;5054589;28;20356;-74
2022/01/01 07:12:45;;;;;;;18.83;8.32;;;;;;;9.85;100.00;102372.53;5054397;28;20090;-75
2022/01/01 07:15:11;;;;;;;17.63;8.20;;;;;;;9.85;100.00;102378.75;5054118;28;20039;-74
2022/01/01 07:17:37;;;;;;;21.60;7.93;;;;;;;9.82;100.00;102373.63;5052993;28;20028;-74
2022/01/01 07:20:04;;;;;;;19.25;8.48;;;;;;;9.78;100.00;102388.03;5054079;28;20473;-74
2022/01/01 07:22:30;;;;;;;26.67;9.02;;;;;;;9.77;100.00;102391.66;5054855;28;20056;-75
2022/01/01 07:24:55;;;;;;;20.10;8.52;;;;;;;9.78;100.00;102393.34;5054917;28;20465;-75
2022/01/01 07:27:20;;;;;;;22.48;8.90;;;;;;;9.79;100.00;102394.19;5054118;28;20036;-73
2022/01/01 07:29:46;;;;;;;23.20;9.77;;;;;;;9.76;100.00;102395.25;5053846;28;20150;-74
2022/01/01 07:32:12;;;;;;;20.60;9.85;;;;;;;9.79;100.00;102395.09;5054026;28;20055;-74
2022/01/01 07:34:37;;;;;;;19.67;9.45;;;;;;;9.80;100.00;102390.59;5052681;28;20037;-74
2022/01/01 07:37:03;;;;;;;30.55;10.85;;;;;;;9.83;100.00;102393.06;5053598;28;20115;-74
2022/01/01 07:39:28;;;;;;;20.23;9.43;;;;;;;9.89;100.00;102396.19;5053571;28;20033;-79
2022/01/01 07:41:54;;;;;;;23.70;9.95;;;;;;;9.88;100.00;102390.97;5053761;28;20377;-73
2022/01/01 07:44:19;;;;;;;27.35;9.90;;;;;;;9.86;100.00;102392.88;5053758;28;20382;-73
2022/01/01 07:46:45;;;;;;;22.73;10.20;;;;;;;9.86;100.00;102393.72;5052437;28;20031;-73
2022/01/01 07:49:10;;;;;;;22.75;10.82;;;;;;;9.87;100.00;102397.25;5053630;28;20039;-73
2022/01/01 07:51:35;;;;;;;22.90;10.65;;;;;;;9.84;100.00;102390.31;5053887;28;20035;-74
2022/01/01 07:54:01;;;;;;;34.60;20.17;;;;;;;9.81;100.00;102381.69;5054089;28;20037;-74
2022/01/01 07:56:26;;;;;;;310.65;182.02;;;;;;;9.82;100.00;102386.03;5054132;28;20036;-74
2022/01/01 07:58:51;;;;;;;146.93;70.53;;;;;;;9.84;100.00;102384.16;5054184;28;20084;-74
2022/01/01 08:01:17;;;;;;;57.13;29.98;;;;;;;9.82;100.00;102378.06;5053529;28;20480;-74
2022/01/01 08:03:42;;;;;;;42.10;20.92;;;;;;;9.82;100.00;102394.88;5053759;28;20033;-74
2022/01/01 08:06:08;;;;;;;43.83;23.95;;;;;;;9.85;100.00;102391.16;5053743;28;20085;-74
2022/01/01 08:08:33;;;;;;;27.20;12.98;;;;;;;9.85;100.00;102410.66;5053292;28;20029;-75
2022/01/01 08:10:59;;;;;;;23.73;9.45;;;;;;;9.87;100.00;102411.38;5052452;28;20087;-75
2022/01/01 08:13:25;;;;;;;17.70;9.30;;;;;;;9.93;100.00;102410.16;5053399;28;20376;-74
2022/01/01 08:15:55;;;;;;;19.80;9.23;;;;;;;9.91;100.00;102411.19;5054176;28;20079;-74
2022/01/01 08:18:21;;;;;;;24.98;10.65;;;;;;;9.92;100.00;102420.88;5053243;28;20534;-74
2022/01/01 08:20:47;;;;;;;18.45;9.50;;;;;;;9.95;100.00;102415.38;5053340;28;20025;-74
2022/01/01 08:23:13;;;;;;;18.50;9.63;;;;;;;10.01;100.00;102414.97;5053452;28;20040;-74
2022/01/01 08:25:39;;;;;;;20.50;9.57;;;;;;;9.99;100.00;102407.09;5053476;28;20428;-74
2022/01/01 08:28:06;;;;;;;22.20;9.73;;;;;;;9.99;100.00;102395.63;5053214;28;20103;-74
2022/01/01 08:30:35;;;;;;;20.40;10.18;;;;;;;9.98;100.00;102392.09;5053207;28;20115;-74
2022/01/01 08:33:03;;;;;;;21.92;10.35;;;;;;;9.97;100.00;102392.19;5052825;28;20021;-74
2022/01/01 08:35:34;;;;;;;21.30;10.50;;;;;;;9.95;100.00;102379.00;5052727;28;20013;-75
2022/01/01 08:38:01;;;;;;;23.33;9.98;;;;;;;9.93;100.00;102382.69;5052269;28;20103;-74
2022/01/01 08:40:28;;;;;;;21.48;11.07;;;;;;;9.88;100.00;102380.31;5052608;28;20536;-74
2022/01/01 08:42:54;;;;;;;21.13;10.35;;;;;;;9.85;100.00;102381.41;5053165;28;20058;-74
2022/01/01 08:45:19;;;;;;;22.58;11.13;;;;;;;9.84;100.00;102365.53;5052405;28;20021;-74
2022/01/01 08:47:45;;;;;;;24.90;11.77;;;;;;;9.87;100.00;102368.00;5052477;28;20081;-73
2022/01/01 08:50:11;;;;;;;21.70;12.05;;;;;;;9.84;100.00;102361.06;5052315;28;20071;-74
2022/01/01 08:52:36;;;;;;;26.23;12.27;;;;;;;9.82;100.00;102356.78;5052747;28;20053;-73
2022/01/01 08:55:03;;;;;;;24.15;12.40;;;;;;;9.82;100.00;102357.66;5050853;28;20393;-74
2022/01/01 08:57:31;;;;;;;26.20;12.90;;;;;;;9.84;100.00;102361.06;5051936;28;20045;-73
2022/01/01 08:59:58;;;;;;;22.55;13.95;;;;;;;9.87;100.00;102360.03;5052278;28;20148;-72
2022/01/01 09:02:23;;;;;;;25.48;13.15;;;;;;;9.88;100.00;102359.94;5052598;28;20123;-72
2022/01/01 09:04:48;;;;;;;25.98;14.82;;;;;;;9.91;100.00;102363.34;5052229;28;20036;-72
2022/01/01 09:07:14;;;;;;;27.63;13.80;;;;;;;9.96;100.00;102370.06;5052015;28;20052;-73
2022/01/01 09:09:40;;;;;;;30.95;14.98;;;;;;;9.93;100.00;102358.75;5051584;28;20029;-78
2022/01/01 09:12:07;;;;;;;27.75;16.40;;;;;;;9.85;100.00;102340.66;5051691;28;20227;-74
2022/01/01 09:14:33;;;;;;;31.40;15.93;;;;;;;9.79;100.00;102355.22;5051512;28;20029;-72
2022/01/01 09:16:58;;;;;;;31.92;18.55;;;;;;;9.73;100.00;102344.94;5051853;28;20036;-72
2022/01/01 09:19:23;;;;;;;33.88;19.20;;;;;;;9.71;100.00;102336.22;5051737;28;20037;-72
2022/01/01 09:21:49;;;;;;;36.92;20.73;;;;;;;9.74;100.00;102325.38;5050198;28;20150;-73
2022/01/01 09:24:15;;;;;;;40.47;20.23;;;;;;;9.82;100.00;102324.91;5055254;28;20032;-73
2022/01/01 09:26:40;;;;;;;37.25;21.30;;;;;;;9.87;100.00;102323.66;5055246;28;20040;-73
2022/01/01 09:29:06;;;;;;;34.90;20.25;;;;;;;9.96;100.00;102327.53;5054727;28;20428;-73
2022/01/01 09:31:32;;;;;;;35.30;18.90;;;;;;;9.96;100.00;102316.06;5055639;28;20029;-73
2022/01/01 09:33:58;;;;;;;34.55;18.45;;;;;;;9.92;100.00;102314.53;5055223;28;20196;-72
2022/01/01 09:36:23;;;;;;;40.03;18.33;;;;;;;9.86;100.00;102306.00;5055397;28;20036;-72
2022/01/01 09:38:49;;;;;;;37.85;20.75;;;;;;;9.82;100.00;102320.44;5055307;28;20041;-73
2022/01/01 09:41:15;;;;;;;47.20;22.38;;;;;;;9.86;100.00;102319.28;5055365;28;20033;-71
2022/01/01 09:43:41;;;;;;;46.63;23.25;;;;;;;9.92;100.00;102322.50;5054836;28;20547;-72
2022/01/01 09:46:11;;;;;;;50.50;23.17;;;;;;;10.00;100.00;102322.84;5055106;28;20094;-73
2022/01/01 09:48:38;;;;;;;54.25;25.90;;;;;;;10.06;100.00;102322.47;5055166;28;20021;-74
2022/01/01 09:51:03;;;;;;;53.05;25.88;;;;;;;10.19;100.00;102317.19;5055190;28;20116;-74
2022/01/01 09:53:30;;;;;;;53.55;25.58;;;;;;;10.22;100.00;102320.50;5055183;28;20056;-74
2022/01/01 09:55:58;;;;;;;52.17;25.40;;;;;;;10.23;100.00;102308.91;5055151;28;20028;-74
2022/01/01 09:58:27;;;;;;;51.90;25.77;;;;;;;10.31;100.00;102321.72;5054613;28;20393;-74
2022/01/01 10:00:53;;;;;;;56.47;26.38;;;;;;;10.44;100.00;102329.78;5054632;28;20121;-73
2022/01/01 10:03:37;;;;;;;55.40;25.77;;;;;;;10.58;99.83;102320.88;5054568;28;20125;-73
2022/01/01 10:06:04;;;;;;;59.47;32.58;;;;;;;10.54;98.75;102325.56;5054467;28;20135;-73
2022/01/01 10:08:30;;;;;;;56.63;34.38;;;;;;;10.50;99.32;102334.69;5055051;28;20190;-74
2022/01/01 10:10:56;;;;;;;56.30;28.50;;;;;;;10.47;99.16;102342.88;5054718;28;20033;-74
2022/01/01 10:13:31;;;;;;;77.40;43.88;;;;;;;10.45;99.72;102338.59;5054839;28;20025;-75
2022/01/01 10:15:59;;;;;;;58.92;31.77;;;;;;;10.43;99.86;102336.03;5054374;28;20039;-73
2022/01/01 10:18:28;;;;;;;49.53;26.05;;;;;;;10.41;100.00;102335.31;5054539;28;20103;-74
2022/01/01 10:21:15;;;;;;;61.40;32.70;;;;;;;10.38;100.00;102341.66;5054564;28;20500;-74
2022/01/01 10:23:43;;;;;;;54.25;28.00;;;;;;;10.40;100.00;102330.94;5054689;28;20134;-75
2022/01/01 10:29:04;;;;;;;51.40;25.25;;;;;;;10.55;100.00;102324.59;5054198;28;20044;-74
2022/01/01 10:31:33;;;;;;;49.70;25.30;;;;;;;10.65;99.58;102323.97;5054792;28;20025;-74
2022/01/01 10:33:59;;;;;;;44.20;23.77;;;;;;;10.72;99.39;102327.94;5053151;28;20449;-74
2022/01/01 10:36:24;;;;;;;44.85;24.27;;;;;;;10.72;99.36;102318.13;5054097;28;20025;-74
2022/01/01 10:38:50;;;;;;;43.95;22.90;;;;;;;10.83;98.50;102320.06;5053897;28;20033;-76
2022/01/01 10:41:17;;;;;;;41.15;22.20;;;;;;;10.88;98.44;102317.94;5053780;28;20029;-73
2022/01/01 10:43:45;;;;;;;38.40;21.52;;;;;;;10.93;98.48;102315.81;5052686;28;20036;-74
2022/01/01 10:46:14;;;;;;;40.88;22.67;;;;;;;11.06;98.44;102312.28;5053742;28;20025;-74
2022/01/01 10:51:19;;;;;;;194.48;30.60;;;;;;;11.24;96.79;102304.81;5054126;28;20033;-74
2022/01/01 10:53:44;;;;;;;40.70;20.00;;;;;;;11.25;96.46;102311.88;5053650;28;20033;-74
2022/01/01 10:56:17;;;;;;;41.17;19.00;;;;;;;11.33;96.21;102317.53;5053665;28;20445;-73
2022/01/01 10:58:43;;;;;;;31.45;18.27;;;;;;;11.40;96.03;102305.44;5053703;28;20048;-74
2022/01/01 11:01:09;;;;;;;34.47;18.27;;;;;;;11.47;95.77;102303.22;5053283;28;20393;-75
2022/01/01 11:03:36;;;;;;;36.40;18.45;;;;;;;11.49;95.43;102297.78;5053299;28;20043;-74
2022/01/01 11:06:07;;;;;;;28.20;17.33;;;;;;;11.52;95.40;102306.41;5053683;28;20033;-74
2022/01/01 11:08:33;;;;;;;33.60;17.38;;;;;;;11.68;94.40;102297.31;5053532;28;20041;-75
2022/01/01 11:10:59;;;;;;;31.35;17.58;;;;;;;11.64;94.49;102278.88;5053224;28;20044;-74
2022/01/01 11:13:24;;;;;;;26.17;16.73;;;;;;;11.59;94.19;102289.00;5051932;28;20064;-75